createdAt,value
2023-05-03T00:01:46.183Z,4.23
2023-05-03T00:06:48.544Z,3.43
2023-05-03T00:11:52.107Z,3.77
2023-05-03T00:16:54.101Z,4.70
2023-05-03T00:21:56.033Z,4.00
2023-05-03T00:26:59.700Z,4.10
2023-05-03T00:32:02.660Z,4.03
2023-05-03T00:37:05.071Z,4.73
2023-05-03T00:42:08.445Z,4.50
2023-05-03T00:47:11.090Z,4.83
2023-05-03T00:52:12.944Z,4.90
2023-05-03T00:57:16.733Z,3.60
2023-05-03T01:02:19.020Z,4.77
2023-05-03T01:07:31.254Z,4.33
2023-05-03T01:12:49.194Z,3.60
2023-05-03T01:17:55.194Z,3.73
2023-05-03T01:23:06.666Z,4.00
2023-05-03T01:28:10.511Z,2.90
2023-05-03T01:33:21.903Z,2.53
2023-05-03T01:38:24.664Z,2.87
2023-05-03T01:43:31.574Z,3.63
2023-05-03T01:48:33.597Z,3.80
2023-05-03T01:53:35.363Z,1.73
2023-05-03T01:58:38.919Z,2.07
2023-05-03T02:03:41.137Z,2.10
2023-05-03T02:08:42.818Z,3.50
2023-05-03T02:13:47.069Z,3.43
2023-05-03T02:18:48.998Z,2.80
2023-05-03T02:23:51.170Z,1.73
2023-05-03T02:28:56.161Z,3.90
2023-05-03T02:33:59.175Z,4.17
2023-05-03T02:39:01.511Z,3.53
2023-05-03T02:44:05.286Z,4.90
2023-05-03T02:49:07.421Z,4.60
2023-05-03T02:54:09.785Z,4.53
2023-05-03T02:59:13.056Z,4.70
2023-05-03T03:04:16.005Z,4.70
2023-05-03T03:09:18.109Z,4.67
2023-05-03T03:14:21.645Z,4.87
2023-05-03T03:19:23.758Z,5.07
2023-05-03T03:24:25.713Z,4.63
2023-05-03T03:29:30.362Z,5.30
2023-05-03T03:34:32.541Z,5.03
2023-05-03T03:39:34.781Z,4.90
2023-05-03T03:44:38.648Z,4.93
2023-05-03T03:49:41.421Z,6.37
2023-05-03T03:54:43.583Z,6.93
2023-05-03T03:59:46.944Z,6.43
2023-05-03T04:04:49.164Z,6.67
2023-05-03T04:09:51.204Z,7.30
2023-05-03T04:14:55.266Z,6.63
2023-05-03T04:19:58.979Z,7.20
2023-05-03T04:25:01.406Z,8.57
2023-05-03T04:30:05.746Z,10.83
2023-05-03T04:35:10.789Z,13.03
2023-05-03T04:40:13.472Z,13.93
2023-05-03T04:45:18.870Z,13.27
2023-05-03T04:50:21.286Z,13.10
2023-05-03T04:55:23.187Z,12.40
2023-05-03T05:00:26.664Z,11.97
2023-05-03T05:05:28.726Z,13.17
2023-05-03T05:10:30.957Z,12.57
2023-05-03T05:15:34.328Z,12.57
2023-05-03T05:20:36.571Z,11.63
2023-05-03T05:25:38.547Z,12.43
2023-05-03T05:30:42.221Z,13.03
2023-05-03T05:35:46.458Z,12.87
2023-05-03T05:40:48.394Z,13.13
2023-05-03T05:45:52.236Z,13.37
2023-05-03T05:50:54.558Z,12.97
2023-05-03T05:55:56.802Z,11.23
2023-05-03T06:01:01.578Z,10.57
2023-05-03T06:06:03.829Z,11.50
2023-05-03T06:11:05.799Z,10.60
2023-05-03T06:16:09.413Z,10.10
2023-05-03T06:21:12.116Z,9.57
2023-05-03T06:26:14.463Z,10.53
2023-05-03T06:31:18.157Z,9.90
2023-05-03T06:36:20.509Z,9.90
2023-05-03T06:41:22.481Z,8.27
2023-05-03T06:46:25.766Z,8.73
2023-05-03T06:51:29.950Z,8.20
2023-05-03T06:56:32.183Z,8.77
2023-05-03T07:01:36.108Z,8.23
2023-05-03T07:06:52.455Z,8.30
2023-05-03T07:11:57.736Z,7.87
2023-05-03T07:17:01.366Z,8.27
2023-05-03T07:22:04.024Z,7.77
2023-05-03T07:27:06.809Z,7.83
2023-05-03T07:32:10.781Z,7.30
2023-05-03T07:37:13.084Z,7.33
2023-05-03T07:42:15.426Z,7.53
2023-05-03T07:47:19.044Z,6.33
2023-05-03T07:52:21.582Z,6.93
2023-05-03T07:57:24.621Z,6.53
2023-05-03T08:02:28.441Z,6.37
2023-05-03T08:07:30.904Z,6.60
2023-05-03T08:12:32.890Z,6.27
2023-05-03T08:17:42.166Z,6.13
2023-05-03T08:22:45.401Z,6.03
2023-05-03T08:27:47.342Z,5.83
2023-05-03T08:32:51.706Z,5.43
2023-05-03T08:37:54.090Z,6.33
2023-05-03T08:42:57.931Z,6.00
2023-05-03T08:48:03.707Z,5.97
2023-05-03T08:53:06.373Z,5.83
2023-05-03T08:58:12.827Z,5.13
2023-05-03T09:03:16.844Z,4.97
2023-05-03T09:08:22.932Z,5.05
2023-05-03T09:13:31.803Z,4.50
2023-05-03T09:18:35.256Z,4.88
2023-05-03T09:23:37.568Z,3.45
2023-05-03T09:28:43.811Z,2.85
2023-05-03T09:33:47.192Z,2.92
2023-05-03T09:38:50.208Z,2.80
2023-05-03T09:43:55.637Z,1.77
2023-05-03T09:48:59.089Z,3.35
2023-05-03T09:54:01.373Z,2.83
2023-05-03T09:59:03.983Z,4.18
2023-05-03T10:04:08.368Z,3.72
2023-05-03T10:09:16.673Z,4.13
2023-05-03T10:14:19.319Z,4.40
2023-05-03T10:19:28.823Z,4.30
2023-05-03T10:24:31.025Z,4.30
2023-05-03T10:29:50.376Z,4.07
2023-05-03T10:34:58.376Z,7.75
2023-05-03T10:40:07.989Z,4.40
2023-05-03T10:45:12.809Z,4.35
2023-05-03T10:50:29.262Z,4.68
2023-05-03T10:55:31.446Z,3.88
2023-05-03T11:00:39.194Z,4.20
2023-05-03T11:05:43.551Z,4.18
2023-05-03T11:10:46.512Z,3.42
2023-05-03T11:15:48.870Z,3.28
2023-05-03T11:20:53.917Z,3.53
2023-05-03T11:25:57.903Z,3.15
2023-05-03T11:31:02.207Z,3.10
2023-05-03T11:36:08.407Z,3.20
2023-05-03T11:41:16.596Z,3.40
2023-05-03T11:46:21.949Z,3.25
2023-05-03T11:51:27.346Z,3.13
2023-05-03T11:56:29.415Z,3.70
2023-05-03T12:01:32.226Z,3.50
2023-05-03T12:06:37.456Z,3.78
2023-05-03T12:11:45.133Z,3.80
2023-05-03T12:16:50.857Z,4.15
2023-05-03T12:22:09.391Z,4.22
2023-05-03T12:27:19.397Z,4.30
2023-05-03T12:32:23.112Z,4.47
2023-05-03T12:37:27.774Z,3.35
2023-05-03T12:42:33.016Z,2.92
2023-05-03T12:47:37.489Z,2.65
2023-05-03T12:52:45.149Z,2.50
2023-05-03T12:57:59.046Z,2.72
2023-05-03T13:03:20.740Z,2.30
2023-05-03T13:08:33.520Z,2.53
2023-05-03T13:13:37.474Z,2.13
2023-05-03T13:18:39.753Z,1.77
2023-05-03T13:23:43.368Z,1.65
2023-05-03T13:28:45.170Z,1.90
2023-05-03T13:33:47.026Z,1.67
2023-05-03T13:38:52.012Z,1.70
2023-05-03T13:43:54.310Z,1.30
2023-05-03T13:48:56.806Z,1.52
2023-05-03T13:54:00.952Z,1.67
2023-05-03T13:59:03.285Z,1.70
2023-05-03T14:04:06.323Z,1.63
2023-05-03T14:09:11.027Z,1.65
2023-05-03T14:14:12.868Z,1.77
2023-05-03T14:19:17.620Z,1.48
2023-05-03T14:24:21.178Z,1.50
2023-05-03T14:29:23.831Z,1.63
2023-05-03T14:34:25.869Z,1.60
2023-05-03T14:39:29.433Z,1.27
2023-05-03T14:44:31.692Z,1.63
2023-05-03T14:49:40.507Z,1.70
2023-05-03T14:54:43.924Z,2.05
2023-05-03T14:59:47.466Z,1.80
2023-05-03T15:04:50.489Z,1.95
2023-05-03T15:09:53.911Z,2.08
2023-05-03T15:14:56.006Z,2.03
2023-05-03T15:19:57.931Z,2.05
2023-05-03T15:25:01.611Z,2.10
2023-05-03T15:30:04.437Z,2.20
2023-05-03T15:35:07.689Z,2.30
2023-05-03T15:40:13.770Z,2.35
2023-05-03T15:45:15.924Z,2.50
2023-05-03T15:50:17.952Z,2.97
2023-05-03T15:55:21.431Z,2.78
2023-05-03T16:00:25.614Z,2.50
2023-05-03T16:05:28.072Z,2.90
2023-05-03T16:10:33.139Z,2.20
2023-05-03T16:15:35.494Z,2.45
2023-05-03T16:20:38.021Z,2.72
2023-05-03T16:25:41.580Z,3.38
2023-05-03T16:30:43.916Z,3.10
2023-05-03T16:35:46.157Z,3.20
2023-05-03T16:40:49.780Z,3.28
2023-05-03T16:45:58.469Z,3.05
2023-05-03T16:51:00.773Z,3.10
2023-05-03T16:56:04.442Z,3.20
2023-05-03T17:01:07.997Z,3.47
2023-05-03T17:06:10.406Z,3.15
2023-05-03T17:11:15.123Z,4.00
2023-05-03T17:16:18.552Z,4.00
2023-05-03T17:21:20.972Z,3.80
2023-05-03T17:26:24.825Z,3.90
2023-05-03T17:31:26.821Z,3.60
2023-05-03T17:36:29.803Z,3.93
2023-05-03T17:41:33.919Z,4.33
2023-05-03T17:46:36.660Z,5.40
2023-05-03T17:51:38.745Z,4.33
2023-05-03T17:56:44.861Z,3.90
2023-05-03T18:01:49.297Z,4.30
2023-05-03T18:06:55.839Z,4.33
2023-05-03T18:12:00.220Z,4.70
2023-05-03T18:17:05.861Z,4.50
2023-05-03T18:22:08.689Z,4.70
2023-05-03T18:27:13.726Z,4.20
2023-05-03T18:32:22.807Z,5.03
2023-05-03T18:37:25.656Z,4.73
2023-05-03T18:43:02.085Z,5.67
2023-05-03T18:48:14.880Z,5.33
2023-05-03T18:53:18.164Z,4.70
2023-05-03T18:58:23.113Z,5.00
2023-05-03T19:03:25.722Z,5.40
2023-05-03T19:08:28.940Z,5.70
2023-05-03T19:13:34.153Z,5.43
2023-05-03T19:18:38.055Z,5.63
2023-05-03T19:23:40.944Z,5.03
2023-05-03T19:28:46.565Z,5.03
2023-05-03T19:33:49.184Z,5.40
2023-05-03T19:38:52.163Z,5.30
2023-05-03T19:43:58.322Z,5.30
2023-05-03T19:49:01.047Z,5.30
2023-05-03T19:54:04.053Z,4.27
2023-05-03T19:59:08.100Z,4.97
2023-05-03T20:04:12.496Z,4.37
2023-05-03T20:09:14.906Z,4.70
2023-05-03T20:14:18.948Z,6.40
2023-05-03T20:19:23.540Z,5.37
2023-05-03T20:24:25.887Z,4.70
2023-05-03T20:29:29.664Z,4.93
2023-05-03T20:34:31.806Z,5.50
2023-05-03T20:39:35.451Z,7.53
2023-05-03T20:44:39.321Z,5.77
2023-05-03T20:49:41.333Z,7.40
2023-05-03T20:54:45.631Z,5.70
2023-05-03T20:59:49.258Z,6.87
2023-05-03T21:04:51.579Z,5.60
2023-05-03T21:09:53.552Z,4.73
2023-05-03T21:14:57.153Z,4.90
2023-05-03T21:19:58.939Z,5.23
2023-05-03T21:25:01.353Z,5.20
2023-05-03T21:30:05.369Z,4.83
2023-05-03T21:35:09.358Z,5.33
2023-05-03T21:40:13.381Z,5.97
2023-05-03T21:45:16.949Z,5.80
2023-05-03T21:50:19.775Z,5.83
2023-05-03T21:55:22.204Z,4.13
2023-05-03T22:00:27.480Z,5.00
2023-05-03T22:05:29.326Z,5.60
2023-05-03T22:10:31.477Z,5.20
2023-05-03T22:15:36.141Z,5.47
2023-05-03T22:20:38.393Z,6.23
2023-05-03T22:25:41.116Z,6.47
2023-05-03T22:30:44.470Z,5.47
2023-05-03T22:35:46.564Z,5.03
2023-05-03T22:40:48.669Z,5.93
2023-05-03T22:45:52.158Z,4.93
2023-05-03T22:50:54.112Z,7.30
2023-05-03T22:56:00.985Z,5.70
2023-05-03T23:01:05.653Z,5.83
2023-05-03T23:06:08.494Z,5.93
2023-05-03T23:11:10.568Z,5.20
2023-05-03T23:16:14.750Z,6.57
2023-05-03T23:21:16.845Z,5.53
2023-05-03T23:26:18.882Z,5.33
2023-05-03T23:31:22.837Z,5.57
2023-05-03T23:36:25.270Z,4.93
2023-05-03T23:41:27.359Z,5.30
2023-05-03T23:46:31.240Z,5.10
2023-05-03T23:51:33.070Z,4.73
2023-05-03T23:56:35.243Z,5.50
